Time;durP1;ratioP1;P1;durP2;ratioP2;P2;SDS_P1;SDS_P2;PMS_P1;PMS_P2;Temp;Humidity;BMP_temperature;BMP_pressure;BME280_temperature;BME280_humidity;BME280_pressure;Samples;Min_cycle;Max_cycle;Signal;HPM_P1;HPM_P2
2022/06/23 06:02:13;;;;;;;2.75;0.80;;;23.30;47.40;;;;;;5003060;23;20109;-61
2022/06/23 06:04:32;;;;;;;0.40;0.40;;;23.20;47.90;;;;;;4971309;23;20553;-61
2022/06/23 06:06:34;;;;;;;3.80;1.00;;;23.10;47.90;;;;;;4953901;23;20035;-63
2022/06/23 06:11:04;;;;;;;2.53;0.60;;;22.90;48.20;;;;;;4913676;23;20031;-65
2022/06/23 06:13:14;;;;;;;1.83;0.50;;;22.80;48.40;;;;;;5001428;23;20763;-64
2022/06/23 06:15:36;;;;;;;1.00;0.60;;;22.70;48.30;;;;;;5001459;23;20436;-65
2022/06/23 06:17:40;;;;;;;0.73;0.70;;;22.60;48.30;;;;;;5004051;23;20109;-66
2022/06/23 06:19:43;;;;;;;1.77;0.70;;;22.60;48.50;;;;;;4974690;23;20370;-65
2022/06/23 06:21:48;;;;;;;1.67;0.60;;;22.50;48.60;;;;;;4994932;23;20033;-63
2022/06/23 06:24:08;;;;;;;7.70;0.85;;;22.40;48.60;;;;;;4987292;23;20272;-65
2022/06/23 06:26:19;;;;;;;1.63;0.90;;;22.40;48.90;;;;;;4993260;23;20272;-67
2022/06/23 06:28:28;;;;;;;2.88;1.98;;;22.30;49.00;;;;;;4966366;23;20037;-64
2022/06/23 06:30:37;;;;;;;2.25;1.45;;;22.20;49.20;;;;;;4967635;23;20529;-63
2022/06/23 06:32:40;;;;;;;4.10;1.90;;;22.20;49.40;;;;;;4992248;23;20503;-66
2022/06/23 06:34:52;;;;;;;3.80;2.25;;;22.10;49.20;;;;;;4972355;23;20030;-70
2022/06/23 06:36:54;;;;;;;3.92;2.22;;;22.10;49.50;;;;;;4972564;23;20067;-64
2022/06/23 06:39:05;;;;;;;3.80;2.25;;;22.00;49.80;;;;;;4968691;23;20541;-63
2022/06/23 06:41:07;;;;;;;3.28;2.20;;;22.00;49.80;;;;;;4964811;23;20512;-64
2022/06/23 06:43:16;;;;;;;4.07;2.22;;;22.00;50.00;;;;;;4993729;23;20038;-63
2022/06/23 06:45:23;;;;;;;3.38;2.53;;;21.90;50.10;;;;;;4968565;23;20344;-62
2022/06/23 06:47:35;;;;;;;3.45;2.38;;;21.90;50.30;;;;;;4970120;23;20887;-66
2022/06/23 06:49:37;;;;;;;6.35;2.97;;;21.90;51.20;;;;;;4969787;23;20034;-60
2022/06/23 06:51:40;;;;;;;4.80;2.33;;;21.80;50.70;;;;;;4997253;23;20245;-63
2022/06/23 06:53:46;;;;;;;4.43;2.90;;;21.80;50.70;;;;;;4966327;23;20277;-67
2022/06/23 06:55:56;;;;;;;5.88;2.72;;;21.70;50.90;;;;;;4967649;23;20042;-66
2022/06/23 06:58:16;;;;;;;4.88;2.60;;;21.70;50.90;;;;;;4994929;23;20038;-69
2022/06/23 07:00:36;;;;;;;7.10;2.88;;;21.70;51.10;;;;;;4945199;23;20118;-61
2022/06/23 07:02:43;;;;;;;4.15;2.90;;;21.60;51.20;;;;;;4972117;23;20387;-63
2022/06/23 07:05:23;;;;;;;3.30;2.55;;;21.60;51.30;;;;;;4966550;23;20079;-62
2022/06/23 07:07:31;;;;;;;5.35;2.70;;;21.60;51.50;;;;;;4924065;23;20296;-62
2022/06/23 07:09:57;;;;;;;5.25;2.60;;;21.50;51.40;;;;;;4967147;23;20150;-60
2022/06/23 07:12:08;;;;;;;3.72;2.13;;;21.50;51.20;;;;;;4967391;23;20035;-61
2022/06/23 07:14:39;;;;;;;3.50;2.20;;;21.50;51.90;;;;;;4965217;23;20022;-60
2022/06/23 07:17:06;;;;;;;4.00;2.58;;;21.40;51.20;;;;;;4928214;23;20070;-67
2022/06/23 07:19:14;;;;;;;4.43;2.40;;;21.40;51.30;;;;;;4971313;23;20030;-61
2022/06/23 07:21:28;;;;;;;6.90;2.28;;;21.30;52.00;;;;;;4968823;23;20545;-67
2022/06/23 07:23:35;;;;;;;;;;;21.30;51.70;;;;;;4967969;23;20037;-71
2022/06/23 07:25:45;;;;;;;4.43;2.10;;;21.20;51.70;;;;;;4971430;23;19949;-70
2022/06/23 07:28:05;;;;;;;3.85;2.13;;;21.20;51.70;;;;;;4973333;23;20035;-67
2022/06/23 07:30:23;;;;;;;3.15;1.95;;;21.20;51.80;;;;;;4969930;23;20106;-64
2022/06/23 07:33:00;;;;;;;3.65;1.98;;;21.10;51.80;;;;;;4972771;23;20365;-66
2022/06/23 07:35:34;;;;;;;3.83;2.10;;;21.10;51.90;;;;;;4900100;24;20525;-68
2022/06/23 07:37:46;;;;;;;10.20;2.10;;;21.00;51.90;;;;;;4957455;23;20038;-69
2022/06/23 07:40:02;;;;;;;2.80;1.98;;;21.00;51.90;;;;;;4972551;23;20118;-66
2022/06/23 07:42:56;;;;;;;3.78;2.28;;;20.90;52.00;;;;;;4968421;23;20029;-65
2022/06/23 07:45:14;;;;;;;3.35;1.90;;;20.90;52.10;;;;;;4944143;23;20416;-64
2022/06/23 07:47:20;;;;;;;5.03;2.10;;;20.90;52.20;;;;;;4973431;23;20031;-63
2022/06/23 07:49:25;;;;;;;4.43;2.30;;;20.90;52.50;;;;;;4970095;23;20452;-70
2022/06/23 07:51:27;;;;;;;2.42;1.90;;;20.80;52.40;;;;;;4969633;23;20030;-69
2022/06/23 07:53:35;;;;;;;4.97;2.37;;;20.80;52.70;;;;;;4977162;23;20308;-69
2022/06/23 07:55:43;;;;;;;4.28;1.85;;;20.80;52.90;;;;;;4977083;23;20266;-69
2022/06/23 07:57:45;;;;;;;3.95;2.13;;;20.70;52.70;;;;;;4976888;23;20694;-72
2022/06/23 07:59:59;;;;;;;4.28;2.03;;;20.70;52.70;;;;;;4970959;23;20109;-72
2022/06/23 08:02:09;;;;;;;3.35;1.92;;;20.70;52.80;;;;;;4971807;23;20543;-63
2022/06/23 08:04:30;;;;;;;2.65;1.80;;;20.60;52.90;;;;;;4971216;23;20035;-63
2022/06/23 08:06:34;;;;;;;3.78;2.10;;;20.60;52.90;;;;;;4973617;23;20138;-62
2022/06/23 08:08:38;;;;;;;4.47;2.10;;;20.60;52.90;;;;;;4968762;23;20514;-62
2022/06/23 08:10:41;;;;;;;2.25;1.58;;;20.50;52.80;;;;;;4968267;23;20034;-62
2022/06/23 08:12:57;;;;;;;3.15;1.92;;;20.50;52.70;;;;;;4976915;23;20293;-63
2022/06/23 08:17:58;;;;;;;5.05;1.67;;;20.40;52.70;;;;;;4970845;23;20034;-68
2022/06/23 08:20:02;;;;;;;3.25;2.10;;;20.40;52.80;;;;;;4967343;23;20521;-68
2022/06/23 08:22:12;;;;;;;3.58;2.13;;;20.40;52.80;;;;;;4976276;23;20519;-70
2022/06/23 08:24:24;;;;;;;4.45;2.08;;;20.40;53.40;;;;;;4974909;23;20432;-65
2022/06/23 08:26:27;;;;;;;4.80;1.98;;;20.60;53.40;;;;;;4975103;23;20421;-67
2022/06/23 08:28:29;;;;;;;5.33;1.67;;;21.20;52.60;;;;;;4968404;23;20715;-69
2022/06/23 08:30:36;;;;;;;3.87;1.80;;;21.80;51.50;;;;;;4967368;23;20037;-64
2022/06/23 08:32:42;;;;;;;3.38;1.85;;;22.30;50.40;;;;;;4970309;23;20341;-69
2022/06/23 08:34:55;;;;;;;3.53;1.92;;;22.90;49.60;;;;;;4976223;23;20034;-67
2022/06/23 08:37:21;;;;;;;2.38;1.52;;;23.40;48.70;;;;;;4974151;23;20109;-66
2022/06/23 08:39:46;;;;;;;2.22;1.58;;;23.80;48.00;;;;;;4972052;23;20041;-66
2022/06/23 08:41:55;;;;;;;1.98;1.50;;;23.80;47.70;;;;;;4970954;23;20030;-65
2022/06/23 08:44:29;;;;;;;2.60;1.67;;;23.50;47.90;;;;;;4972272;23;20652;-66
2022/06/23 08:46:49;;;;;;;3.22;1.83;;;23.20;48.70;;;;;;4938917;23;20650;-68
2022/06/23 08:49:20;;;;;;;2.50;1.80;;;23.00;49.10;;;;;;4971424;23;20106;-67
2022/06/23 08:51:22;;;;;;;4.40;1.90;;;22.70;49.50;;;;;;4969819;23;20504;-67
2022/06/23 08:53:47;;;;;;;4.22;2.00;;;22.50;49.90;;;;;;4974414;23;20030;-68
2022/06/23 08:55:58;;;;;;;2.60;1.77;;;22.30;50.20;;;;;;4970511;23;20062;-67
2022/06/23 08:58:04;;;;;;;3.13;2.13;;;22.20;50.60;;;;;;4967044;23;20035;-64
2022/06/23 09:00:11;;;;;;;2.65;1.80;;;22.00;50.70;;;;;;4949204;23;20946;-67
2022/06/23 09:02:23;;;;;;;3.17;1.95;;;21.90;51.00;;;;;;4974643;23;20062;-67
2022/06/23 09:04:28;;;;;;;3.70;2.10;;;21.80;51.10;;;;;;4977718;23;20489;-67
2022/06/23 09:06:43;;;;;;;3.67;2.22;;;21.70;51.40;;;;;;4972335;23;20479;-70
2022/06/23 09:09:28;;;;;;;4.55;2.33;;;21.70;51.90;;;;;;4973132;23;20035;-70
2022/06/23 09:11:51;;;;;;;3.80;2.17;;;21.60;52.50;;;;;;4929393;23;20041;-61
2022/06/23 09:13:56;;;;;;;5.40;2.78;;;21.60;52.70;;;;;;4971709;23;20594;-63
2022/06/23 09:16:21;;;;;;;8.40;2.45;;;21.40;53.00;;;;;;4973353;23;20113;-61
2022/06/23 09:18:54;;;;;;;3.55;2.30;;;21.40;53.10;;;;;;4971125;23;20030;-59
2022/06/23 09:21:19;;;;;;;4.15;2.28;;;21.40;53.40;;;;;;4976201;23;20033;-60
2022/06/23 09:23:42;;;;;;;2.67;2.00;;;21.30;53.50;;;;;;4971706;23;20034;-61
2022/06/23 09:25:57;;;;;;;4.70;2.33;;;21.30;53.50;;;;;;4969649;23;20027;-62
2022/06/23 09:28:16;;;;;;;2.85;2.40;;;21.20;53.60;;;;;;4969316;23;20122;-59
2022/06/23 09:30:37;;;;;;;5.18;2.30;;;21.20;53.70;;;;;;4974232;23;20386;-59
2022/06/23 09:33:00;;;;;;;4.85;2.60;;;21.20;53.90;;;;;;4972030;23;20138;-62
2022/06/23 09:35:11;;;;;;;2.92;2.08;;;21.10;53.90;;;;;;4969224;23;20117;-63
2022/06/23 09:37:37;;;;;;;3.85;2.28;;;21.10;54.10;;;;;;4969166;23;20114;-60
2022/06/23 09:39:58;;;;;;;4.53;2.45;;;21.10;54.20;;;;;;4937686;23;20037;-60
2022/06/23 09:42:35;;;;;;;4.03;2.58;;;21.00;54.20;;;;;;4977916;23;20037;-60
2022/06/23 09:44:56;;;;;;;3.80;2.38;;;21.00;54.30;;;;;;4979706;23;20038;-66
2022/06/23 09:47:30;;;;;;;3.50;2.30;;;21.00;54.40;;;;;;4968918;23;20122;-63
2022/06/23 09:49:57;;;;;;;3.22;2.30;;;21.00;54.50;;;;;;4952157;23;20061;-63
2022/06/23 09:52:27;;;;;;;3.85;2.35;;;20.90;54.50;;;;;;4976908;23;20039;-65
2022/06/23 09:54:48;;;;;;;3.28;2.33;;;20.90;54.60;;;;;;4981140;23;20190;-66
2022/06/23 09:57:07;;;;;;;3.42;2.28;;;20.90;54.70;;;;;;4975687;23;20577;-62
2022/06/23 09:59:21;;;;;;;4.28;2.40;;;20.90;54.60;;;;;;4971974;23;20041;-61
2022/06/23 10:01:41;;;;;;;3.70;2.50;;;20.80;54.70;;;;;;4973852;23;20023;-60
2022/06/23 10:04:37;;;;;;;4.10;2.30;;;20.80;54.70;;;;;;4972798;23;20138;-60
2022/06/23 10:07:06;;;;;;;3.72;2.20;;;20.80;54.80;;;;;;4902273;24;20120;-64
2022/06/23 10:09:28;;;;;;;5.28;2.78;;;20.80;54.90;;;;;;4953719;23;20260;-61
2022/06/23 10:11:46;;;;;;;3.60;2.55;;;20.70;54.90;;;;;;4974188;23;20422;-62
2022/06/23 10:14:04;;;;;;;3.55;2.33;;;20.70;54.90;;;;;;4976385;23;20077;-59
2022/06/23 10:16:33;;;;;;;4.05;2.50;;;20.70;55.10;;;;;;4976440;23;20038;-61
2022/06/23 10:18:43;;;;;;;3.42;2.35;;;20.70;55.20;;;;;;4971523;23;20639;-61
2022/06/23 10:20:51;;;;;;;2.65;2.10;;;20.60;55.10;;;;;;4973574;23;20823;-64
2022/06/23 10:23:13;;;;;;;3.00;2.20;;;20.60;55.10;;;;;;4971348;23;20110;-60
2022/06/23 10:25:25;;;;;;;3.85;2.50;;;20.60;55.20;;;;;;4973626;23;20986;-61
2022/06/23 10:27:45;;;;;;;3.22;2.20;;;20.60;55.30;;;;;;4972607;23;20053;-60
2022/06/23 10:30:07;;;;;;;3.40;2.30;;;20.60;55.70;;;;;;4978986;23;20034;-59
2022/06/23 10:32:18;;;;;;;5.13;2.38;;;20.50;55.10;;;;;;4972102;23;20085;-58
2022/06/23 10:34:28;;;;;;;3.33;2.22;;;20.50;55.20;;;;;;4972739;23;20035;-60
2022/06/23 10:36:38;;;;;;;4.63;2.47;;;20.50;55.00;;;;;;4971250;23;20078;-60
2022/06/23 10:38:54;;;;;;;3.88;2.25;;;20.50;55.20;;;;;;4978868;23;20034;-60
2022/06/23 10:41:09;;;;;;;4.00;2.30;;;20.50;55.80;;;;;;4972313;23;20030;-59
2022/06/23 10:43:43;;;;;;;3.72;2.50;;;20.50;55.20;;;;;;4970517;23;20031;-59
2022/06/23 10:46:00;;;;;;;4.07;2.80;;;20.40;55.20;;;;;;4978399;23;20057;-58
2022/06/23 10:48:28;;;;;;;3.53;2.50;;;20.40;55.30;;;;;;4976712;23;20035;-58
2022/06/23 10:50:59;;;;;;;3.35;2.38;;;20.40;55.30;;;;;;4971749;23;20373;-59
2022/06/23 10:53:16;;;;;;;4.28;2.45;;;20.30;55.40;;;;;;4974971;23;20260;-57
2022/06/23 10:55:38;;;;;;;3.95;2.70;;;20.40;55.50;;;;;;4971357;23;20030;-60
2022/06/23 10:57:59;;;;;;;4.22;2.65;;;20.30;55.40;;;;;;4914027;23;20031;-61
2022/06/23 11:00:04;;;;;;;3.92;2.35;;;20.30;55.50;;;;;;4973208;23;20141;-58
2022/06/23 11:02:12;;;;;;;3.58;2.60;;;20.30;55.60;;;;;;4971760;23;20054;-61
2022/06/23 11:04:44;;;;;;;3.67;2.40;;;20.30;55.50;;;;;;4972243;23;20035;-60
2022/06/23 11:07:23;;;;;;;4.05;2.58;;;20.30;55.60;;;;;;4974883;23;20038;-59
2022/06/23 11:09:50;;;;;;;3.83;2.40;;;20.30;56.00;;;;;;4977378;23;20136;-60
2022/06/23 11:11:59;;;;;;;3.50;2.28;;;20.20;55.80;;;;;;4971535;23;20023;-55
2022/06/23 11:14:14;;;;;;;5.03;2.50;;;20.20;55.80;;;;;;4971006;23;20400;-56
2022/06/23 11:16:43;;;;;;;3.30;2.35;;;20.20;55.80;;;;;;4970493;23;20038;-56
2022/06/23 11:18:59;;;;;;;5.10;2.53;;;20.20;56.00;;;;;;4978025;23;20101;-56
2022/06/23 11:21:26;;;;;;;4.28;2.50;;;20.10;55.90;;;;;;4977248;23;20034;-56
2022/06/23 11:24:00;;;;;;;5.60;2.10;;;20.10;55.90;;;;;;4972322;23;20122;-48
2022/06/23 11:26:02;;;;;;;2.92;2.28;;;20.10;56.00;;;;;;4926977;23;20031;-49
2022/06/23 11:28:29;;;;;;;4.25;2.67;;;20.10;56.00;;;;;;4975366;23;20035;-60
2022/06/23 11:31:03;;;;;;;4.07;2.30;;;20.10;56.00;;;;;;4973224;23;20034;-59
2022/06/23 11:33:43;;;;;;;4.03;2.30;;;20.10;56.00;;;;;;4977966;23;20027;-53
2022/06/23 11:36:07;;;;;;;4.07;2.60;;;20.00;56.00;;;;;;4962256;23;20442;-50
2022/06/23 11:38:27;;;;;;;4.00;2.33;;;20.00;56.00;;;;;;4976512;23;20035;-54
2022/06/23 11:40:45;;;;;;;4.78;2.60;;;20.00;56.10;;;;;;4970800;23;20035;-49
2022/06/23 11:43:14;;;;;;;4.13;2.40;;;20.00;56.10;;;;;;4970216;23;20763;-59
2022/06/23 11:45:41;;;;;;;4.35;2.60;;;20.00;56.10;;;;;;4976659;23;20334;-58
2022/06/23 11:48:08;;;;;;;3.30;2.08;;;20.00;56.10;;;;;;4973793;23;20037;-59
2022/06/23 11:50:29;;;;;;;2.60;2.08;;;20.00;56.10;;;;;;4976784;23;20110;-58
2022/06/23 11:53:07;;;;;;;3.58;2.58;;;19.90;56.10;;;;;;4973190;23;20030;-51
2022/06/23 11:55:12;;;;;;;3.75;2.40;;;19.90;56.10;;;;;;4978626;23;20094;-58
2022/06/23 11:57:29;;;;;;;2.92;2.47;;;19.90;56.20;;;;;;4974979;23;20134;-61
2022/06/23 11:59:37;;;;;;;3.97;2.30;;;19.90;56.30;;;;;;4978903;23;20033;-61
2022/06/23 12:01:39;;;;;;;3.20;2.30;;;19.90;56.40;;;;;;4991968;23;20461;-61
2022/06/23 12:03:42;;;;;;;3.25;2.30;;;19.80;55.60;;;;;;4995425;23;20031;-61
2022/06/23 12:06:10;;;;;;;4.38;2.42;;;19.80;54.80;;;;;;4970867;23;20034;-61
2022/06/23 12:08:41;;;;;;;4.45;3.00;;;19.70;54.50;;;;;;4995351;23;20148;-61
2022/06/23 12:10:43;;;;;;;4.03;2.42;;;19.70;54.50;;;;;;4995258;23;20352;-60
2022/06/23 12:12:48;;;;;;;3.47;2.47;;;19.60;54.40;;;;;;4972377;23;20030;-61
2022/06/23 12:14:51;;;;;;;4.13;2.78;;;19.60;54.50;;;;;;4969350;23;20383;-61
2022/06/23 12:17:27;;;;;;;4.85;2.63;;;19.60;54.70;;;;;;4970278;23;20131;-61
2022/06/23 12:20:10;;;;;;;3.95;2.80;;;19.50;54.50;;;;;;4999107;23;20540;-62
2022/06/23 12:22:16;;;;;;;3.55;2.53;;;19.40;54.70;;;;;;4972235;23;20339;-62
2022/06/23 12:24:55;;;;;;;4.80;3.33;;;19.40;54.70;;;;;;4973785;23;20178;-58
2022/06/23 12:27:34;;;;;;;7.20;2.90;;;19.30;54.70;;;;;;4899635;23;20550;-62
2022/06/23 12:29:47;;;;;;;13.65;3.88;;;19.30;55.30;;;;;;4960846;23;20086;-63
2022/06/23 12:32:09;;;;;;;8.27;2.78;;;19.20;55.40;;;;;;4967255;23;20035;-63
2022/06/23 12:34:38;;;;;;;8.07;2.72;;;19.30;55.60;;;;;;4968205;23;20611;-64
2022/06/23 12:37:07;;;;;;;14.00;3.60;;;19.20;55.70;;;;;;4992401;23;20388;-65
2022/06/23 12:39:18;;;;;;;5.00;2.78;;;19.20;55.80;;;;;;4998245;23;20476;-63
2022/06/23 12:41:55;;;;;;;14.35;3.00;;;19.20;56.10;;;;;;4996233;23;20579;-68
2022/06/23 12:44:45;;;;;;;5.00;2.80;;;19.20;56.20;;;;;;4974804;23;20793;-62
2022/06/23 12:47:13;;;;;;;3.97;2.65;;;19.20;56.20;;;;;;4942820;23;20026;-65
2022/06/23 12:49:51;;;;;;;4.75;2.60;;;19.10;56.30;;;;;;4992721;23;20324;-65
2022/06/23 12:52:17;;;;;;;5.30;2.80;;;19.10;56.40;;;;;;4944153;23;20588;-64
2022/06/23 12:55:06;;;;;;;4.35;2.60;;;19.10;56.60;;;;;;4994189;23;20392;-60
2022/06/23 12:57:28;;;;;;;5.20;2.85;;;19.10;56.80;;;;;;4951266;23;20038;-61
2022/06/23 12:59:50;;;;;;;3.53;2.53;;;19.00;57.20;;;;;;4950550;23;20327;-59
2022/06/23 13:02:35;;;;;;;4.07;2.72;;;19.00;57.10;;;;;;4998547;23;20031;-61
2022/06/23 13:05:03;;;;;;;3.58;2.60;;;19.00;57.30;;;;;;4997334;23;20483;-60
2022/06/23 13:07:25;;;;;;;4.00;2.45;;;19.00;57.60;;;;;;4993965;23;20030;-60
2022/06/23 13:10:03;;;;;;;4.00;2.63;;;19.00;57.50;;;;;;4949234;23;20432;-59
2022/06/23 13:12:06;;;;;;;5.10;3.00;;;19.00;57.60;;;;;;4992842;23;20291;-62
2022/06/23 13:14:34;;;;;;;3.42;2.47;;;18.90;57.60;;;;;;4995032;23;20035;-62
2022/06/23 13:16:55;;;;;;;3.83;2.83;;;18.90;57.20;;;;;;4995934;23;20026;-64
2022/06/23 13:19:34;;;;;;;3.70;2.42;;;18.90;57.50;;;;;;4973284;23;20482;-63
2022/06/23 13:21:39;;;;;;;4.97;2.50;;;18.90;57.60;;;;;;4993155;23;20395;-60
2022/06/23 13:23:57;;;;;;;4.93;2.88;;;18.90;57.50;;;;;;4993416;23;20038;-63
2022/06/23 13:26:20;;;;;;;4.22;2.67;;;18.80;57.60;;;;;;4998886;23;20042;-62
2022/06/23 13:28:46;;;;;;;3.70;2.70;;;18.80;57.60;;;;;;4993434;23;20102;-62
2022/06/23 13:30:51;;;;;;;4.53;3.03;;;18.80;57.60;;;;;;4994612;23;20045;-64
2022/06/23 13:33:16;;;;;;;6.03;2.83;;;18.80;57.60;;;;;;4995714;23;20030;-64
2022/06/23 13:35:30;;;;;;;5.70;3.10;;;18.80;57.80;;;;;;4973719;23;20053;-63
2022/06/23 13:37:44;;;;;;;;;;;18.80;57.80;;;;;;5000749;23;20037;-63
2022/06/23 13:40:17;;;;;;;3.92;2.90;;;18.70;57.60;;;;;;4973796;23;20511;-62
2022/06/23 13:42:31;;;;;;;5.67;3.77;;;18.70;57.50;;;;;;4994857;23;20425;-61
2022/06/23 13:45:18;;;;;;;4.07;3.10;;;18.70;57.50;;;;;;4993389;23;20276;-62
2022/06/23 13:47:42;;;;;;;4.53;3.20;;;18.70;57.50;;;;;;4994283;23;20647;-60
2022/06/23 13:49:55;;;;;;;6.63;3.25;;;18.70;57.60;;;;;;4974348;23;20031;-59
2022/06/23 13:52:26;;;;;;;4.13;3.60;;;18.60;57.60;;;;;;5000027;23;20026;-57
2022/06/23 13:54:46;;;;;;;4.13;3.17;;;18.60;57.60;;;;;;4993266;23;20041;-64
2022/06/23 13:57:13;;;;;;;6.03;3.22;;;18.60;57.60;;;;;;5000526;23;20042;-63
2022/06/23 13:59:23;;;;;;;4.65;3.40;;;18.60;57.70;;;;;;4967998;23;20032;-62
2022/06/23 14:01:59;;;;;;;3.92;3.40;;;18.50;57.60;;;;;;4994710;23;20397;-66
2022/06/23 14:04:32;;;;;;;5.15;3.42;;;18.50;57.60;;;;;;5001775;23;20031;-64
2022/06/23 14:06:41;;;;;;;4.70;3.53;;;18.50;57.40;;;;;;4985046;23;20062;-62
2022/06/23 14:09:03;;;;;;;5.22;3.78;;;18.50;57.60;;;;;;4970018;23;20052;-63
2022/06/23 14:11:17;;;;;;;5.07;3.05;;;18.50;57.70;;;;;;5000030;23;20528;-64
2022/06/23 14:13:30;;;;;;;4.50;3.35;;;18.40;57.70;;;;;;5003220;23;20623;-60
2022/06/23 14:15:53;;;;;;;4.85;3.53;;;18.40;57.70;;;;;;5003743;23;20038;-59
2022/06/23 14:18:19;;;;;;;7.20;3.45;;;18.40;57.70;;;;;;5008725;23;20269;-61
2022/06/23 14:20:47;;;;;;;5.50;3.50;;;18.40;57.60;;;;;;4996779;23;20041;-63
2022/06/23 14:22:56;;;;;;;5.25;3.75;;;18.40;57.50;;;;;;4984267;23;20428;-60
2022/06/23 14:25:17;;;;;;;4.72;3.55;;;18.40;57.70;;;;;;5006333;23;20133;-60
2022/06/23 14:27:46;;;;;;;4.85;3.30;;;18.30;57.50;;;;;;5004441;23;20075;-63
2022/06/23 14:30:09;;;;;;;4.63;3.60;;;18.30;57.50;;;;;;4981264;23;20472;-59
2022/06/23 14:32:36;;;;;;;6.33;3.70;;;18.30;57.60;;;;;;4996310;23;20809;-58
2022/06/23 14:35:00;;;;;;;4.53;3.50;;;18.30;57.60;;;;;;4994619;23;20265;-59
2022/06/23 14:37:20;;;;;;;6.80;3.63;;;18.20;57.60;;;;;;5000522;23;20037;-59
2022/06/23 14:39:47;;;;;;;4.97;3.55;;;18.20;57.50;;;;;;4967863;23;20034;-60
2022/06/23 14:41:58;;;;;;;5.15;4.05;;;18.20;57.50;;;;;;4978686;23;20648;-61
2022/06/23 14:44:19;;;;;;;4.00;3.35;;;18.20;57.60;;;;;;4993934;23;20460;-58
2022/06/23 14:46:38;;;;;;;4.75;3.70;;;18.20;57.50;;;;;;4973446;23;20133;-62
2022/06/23 14:48:56;;;;;;;5.82;3.78;;;18.10;57.50;;;;;;4996835;23;20053;-62
2022/06/23 14:51:18;;;;;;;4.80;3.83;;;18.10;57.80;;;;;;4969598;23;20461;-63
2022/06/23 14:53:52;;;;;;;5.32;3.80;;;18.10;57.80;;;;;;4994759;23;20434;-61
2022/06/23 14:55:57;;;;;;;;;;;18.10;57.60;;;;;;4962977;23;20396;-63
2022/06/23 14:57:58;;;;;;;;;;;18.10;57.60;;;;;;4997299;23;20027;-63
2022/06/23 15:00:15;;;;;;;6.25;4.38;;;18.00;57.60;;;;;;4995009;23;20266;-63
2022/06/23 15:02:49;;;;;;;5.18;4.18;;;18.00;57.50;;;;;;4970759;23;20052;-62
2022/06/23 15:05:24;;;;;;;5.03;3.83;;;18.00;57.50;;;;;;4967009;23;20432;-61
2022/06/23 15:07:46;;;;;;;4.65;3.80;;;18.00;57.60;;;;;;4996190;23;20052;-60
2022/06/23 15:10:13;;;;;;;5.82;4.15;;;18.00;57.60;;;;;;4974180;23;20034;-63
2022/06/23 15:12:34;;;;;;;4.90;3.60;;;18.00;57.70;;;;;;5001496;23;20026;-62
2022/06/23 15:14:45;;;;;;;6.32;4.45;;;17.90;57.70;;;;;;4998822;23;20816;-64
2022/06/23 15:16:53;;;;;;;5.38;3.80;;;17.90;57.70;;;;;;4995909;23;20040;-63
2022/06/23 15:19:12;;;;;;;5.05;3.90;;;17.90;57.50;;;;;;5002423;23;20236;-61
2022/06/23 15:23:49;;;;;;;6.50;4.20;;;17.90;57.60;;;;;;4995984;23;20137;-64
2022/06/23 15:25:51;;;;;;;4.68;4.00;;;17.80;57.60;;;;;;4994228;23;20105;-63
2022/06/23 15:28:00;;;;;;;6.32;4.40;;;17.80;57.50;;;;;;4995869;23;20028;-63
2022/06/23 15:30:16;;;;;;;5.43;3.85;;;17.80;57.60;;;;;;4996121;23;20030;-62
2022/06/23 15:32:29;;;;;;;4.53;3.72;;;17.70;57.50;;;;;;4993727;23;20026;-62
2022/06/23 15:34:56;;;;;;;5.10;3.97;;;17.80;57.60;;;;;;4969306;23;20398;-60
2022/06/23 15:37:18;;;;;;;5.30;4.03;;;17.70;57.50;;;;;;4999264;23;20030;-60
2022/06/23 15:39:40;;;;;;;5.47;4.55;;;17.70;57.80;;;;;;4997221;23;20053;-60
2022/06/23 15:42:04;;;;;;;8.82;4.70;;;17.60;57.80;;;;;;4993887;23;20437;-61
2022/06/23 15:44:25;;;;;;;5.53;4.15;;;17.60;57.90;;;;;;4947644;23;20288;-61
2022/06/23 15:47:00;;;;;;;5.53;4.20;;;17.60;57.80;;;;;;5001662;23;20044;-60
2022/06/23 15:49:11;;;;;;;5.88;4.00;;;17.60;57.80;;;;;;4995808;23;20325;-61
2022/06/23 15:51:23;;;;;;;5.80;4.43;;;17.60;57.90;;;;;;4994428;23;20986;-61
2022/06/23 15:53:33;;;;;;;5.85;4.30;;;17.60;57.80;;;;;;4992073;23;20031;-61
2022/06/23 15:55:57;;;;;;;5.25;4.40;;;17.60;57.80;;;;;;4992232;23;20037;-62
2022/06/23 15:58:15;;;;;;;5.00;3.90;;;17.60;57.80;;;;;;5000878;23;20042;-62
2022/06/23 16:00:34;;;;;;;4.72;3.80;;;17.50;58.50;;;;;;4973613;23;20190;-62
2022/06/23 16:02:51;;;;;;;5.35;4.05;;;17.50;57.80;;;;;;4995204;23;20026;-61
2022/06/23 16:05:06;;;;;;;5.03;3.70;;;17.50;57.80;;;;;;4994877;23;20370;-62
2022/06/23 16:07:17;;;;;;;5.10;4.20;;;17.50;57.80;;;;;;4968305;23;20431;-62
2022/06/23 16:09:40;;;;;;;4.70;3.63;;;17.50;58.10;;;;;;4994954;23;20459;-62
2022/06/23 16:12:01;;;;;;;5.70;4.25;;;17.50;58.20;;;;;;5000591;23;20030;-62
2022/06/23 16:14:34;;;;;;;5.45;4.03;;;17.40;58.20;;;;;;4997693;23;20334;-62
2022/06/23 16:16:36;;;;;;;5.70;4.30;;;17.40;58.30;;;;;;4961910;23;20158;-61
2022/06/23 16:18:54;;;;;;;5.07;4.28;;;17.40;58.10;;;;;;4995559;23;20371;-61
2022/06/23 16:20:56;;;;;;;6.75;4.35;;;17.40;58.10;;;;;;4967620;23;20034;-61
2022/06/23 16:23:13;;;;;;;4.95;4.03;;;17.40;58.20;;;;;;4965051;23;20655;-62
2022/06/23 16:25:34;;;;;;;5.47;4.03;;;17.30;58.10;;;;;;4995827;23;20026;-61
2022/06/23 16:28:02;;;;;;;4.60;3.90;;;17.40;58.10;;;;;;4995266;23;20185;-60
2022/06/23 16:30:23;;;;;;;4.80;3.88;;;17.40;58.30;;;;;;4994181;23;20030;-59
2022/06/23 16:32:54;;;;;;;5.93;4.20;;;17.30;58.10;;;;;;4996561;23;20053;-60
2022/06/23 16:35:09;;;;;;;6.00;3.97;;;17.30;58.20;;;;;;4903597;23;20032;-63
2022/06/23 16:37:28;;;;;;;5.80;4.15;;;17.30;58.30;;;;;;4997017;23;20026;-63
2022/06/23 16:39:42;;;;;;;6.95;4.40;;;17.30;58.20;;;;;;4993495;23;20137;-60
2022/06/23 16:41:57;;;;;;;5.63;3.92;;;17.30;58.10;;;;;;4967657;23;20027;-60
2022/06/23 16:44:01;;;;;;;6.15;4.40;;;17.30;58.20;;;;;;4994087;23;20041;-60
2022/06/23 16:46:19;;;;;;;5.38;3.97;;;17.30;58.20;;;;;;4965587;23;20367;-60
2022/06/23 16:48:56;;;;;;;6.43;3.90;;;17.20;58.10;;;;;;4946179;23;20544;-60
2022/06/23 16:52:05;;;;;;;4.95;4.13;;;17.20;58.00;;;;;;4968225;23;20579;-61
2022/06/23 16:54:45;;;;;;;5.22;3.95;;;17.20;57.90;;;;;;4924067;23;20023;-62
2022/06/23 16:57:04;;;;;;;6.03;4.00;;;17.10;57.90;;;;;;4887847;24;20568;-59
2022/06/23 16:59:28;;;;;;;5.57;3.78;;;17.10;58.10;;;;;;4932503;23;20078;-60
2022/06/23 17:01:42;;;;;;;5.40;4.25;;;17.10;58.10;;;;;;4966540;23;20031;-59
2022/06/23 17:04:06;;;;;;;6.55;4.28;;;17.10;58.20;;;;;;4995260;23;20400;-60
2022/06/23 17:06:21;;;;;;;5.90;4.13;;;17.10;58.20;;;;;;4996655;23;20438;-59
2022/06/23 17:08:28;;;;;;;5.80;4.40;;;17.00;58.10;;;;;;4999014;23;20414;-59
2022/06/23 17:10:39;;;;;;;5.32;4.25;;;17.00;58.10;;;;;;4994154;23;20306;-59
2022/06/23 17:12:52;;;;;;;6.15;3.97;;;17.00;58.10;;;;;;4992970;23;20583;-60
2022/06/23 17:15:11;;;;;;;5.47;3.97;;;17.00;58.10;;;;;;4946762;23;20031;-60
2022/06/23 17:17:19;;;;;;;5.78;4.25;;;17.00;58.20;;;;;;5000970;23;20350;-61
2022/06/23 17:19:27;;;;;;;6.25;4.07;;;17.00;58.20;;;;;;4972010;23;20041;-61
2022/06/23 17:21:47;;;;;;;5.38;4.10;;;16.90;58.20;;;;;;4993223;23;20061;-61
2022/06/23 17:23:52;;;;;;;6.25;4.20;;;16.90;58.20;;;;;;4999786;23;20026;-61
2022/06/23 17:26:01;;;;;;;6.13;4.20;;;16.90;58.20;;;;;;4968159;23;20280;-61
2022/06/23 17:28:18;;;;;;;5.30;4.05;;;16.90;58.30;;;;;;4994299;23;20034;-61
2022/06/23 17:30:48;;;;;;;5.63;4.05;;;16.90;58.30;;;;;;4996188;23;20423;-61
2022/06/23 17:33:13;;;;;;;4.75;3.95;;;16.90;58.40;;;;;;4976364;23;20032;-61
2022/06/23 17:35:30;;;;;;;4.50;3.28;;;16.90;58.30;;;;;;4968483;23;20037;-61
2022/06/23 17:37:46;;;;;;;4.75;3.70;;;16.80;58.20;;;;;;4997289;23;20030;-61
2022/06/23 17:45:24;;;;;;;5.85;4.20;;;16.80;58.30;;;;;;4968428;23;20045;-61
2022/06/23 17:47:54;;;;;;;5.18;3.83;;;16.80;58.20;;;;;;4997930;23;20087;-61
2022/06/23 17:49:58;;;;;;;5.68;3.97;;;16.80;58.20;;;;;;4993027;23;20034;-55
2022/06/23 17:52:04;;;;;;;4.88;3.95;;;16.80;58.50;;;;;;4998406;23;20117;-62
2022/06/23 17:54:11;;;;;;;4.82;3.42;;;16.70;59.00;;;;;;4997018;23;20361;-64
2022/06/23 17:56:17;;;;;;;4.93;4.07;;;16.70;58.90;;;;;;4967425;23;20069;-62
2022/06/23 17:58:32;;;;;;;5.00;3.80;;;16.70;59.00;;;;;;4995315;23;20046;-60
2022/06/23 18:00:50;;;;;;;6.55;3.70;;;16.70;59.00;;;;;;4991024;23;20038;-60
2022/06/23 18:03:18;;;;;;;4.85;3.83;;;16.70;58.70;;;;;;4997307;23;20386;-59
2022/06/23 18:05:42;;;;;;;4.80;3.33;;;16.70;58.80;;;;;;4995423;23;20030;-61
2022/06/23 18:08:04;;;;;;;;;;;16.70;58.60;;;;;;4992875;23;20066;-60
2022/06/23 18:10:28;;;;;;;5.40;3.78;;;16.70;58.60;;;;;;4999181;23;19947;-61
2022/06/23 18:12:53;;;;;;;4.00;3.40;;;16.70;58.80;;;;;;4992799;23;20030;-60
2022/06/23 18:15:12;;;;;;;4.30;3.60;;;16.60;58.60;;;;;;4967778;23;20038;-60
2022/06/23 18:17:37;;;;;;;4.70;3.28;;;16.60;58.50;;;;;;4999230;23;20312;-57